Hit Tracker is now ESPN Home Run Tracker! Hit Tracker founder Greg Rybarczyk is now collaborating with the ESPN Stats & Information Group to continue tracking all MLB home runs, and helping baseball fans know "How Far It Really Went!™" Please credit any information on this site to ESPN Stats & Information Group. For more information and analysis on home runs, please contact founder Greg Rybarczyk. E-Mail ESPN Home Run Tracker
Main Page | Ballparks | Park Overlays | Glossary | Highlight Homers | Feedback | Bio | 3 Types of HR's | AAA Home Run Derby Last Updated: May 24, 2017, 10:21 pm PST
If you want to know "How Far It Really Went!", then you've come to the right place! Welcome to the ESPN Home Run Tracker, where you can find accurate, transparently verifiable distances for every home run hit in MLB games. Please also check out the ESPN MLB Scoreboard throughout the 2017 season! Contact us at grybar@hittrackeronline.com.
Season:
Ballpark detail for Rogers Centre
Ballpark # of Home Runs HR per game Avg.
True
Distance
Avg.
Speed
Off
Bat
Avg.
Std.
Dist.
Rogers Centre 43 2.05 406.6 105.7 406.3

Scatter Plot of Home Runs Rogers Centre
 Overlay Ballpark:
Without range rings   With range rings

2017 Season Home Runs for Rogers Centre
Click headers to sort
Date Video Path Hitter Hitter
Team
Pitcher Pitcher
Team
INN Ballpark Type/
Luck
True
Dist.
Speed
Off
Bat
Elev.
Angle
Horiz.
Angle
Apex Impact Due To: Std.
Dist.
#
Parks
Wind Temp. ^ Alt.
04/11/17 Video View Santana, Domingo MIL Happ, J.A. TOR 5 Rogers Centr... JE 379 105.6 23.2 68.2 60 0 0 1 379 22
04/11/17 Video View Broxton, Keon MIL Happ, J.A. TOR 1 Rogers Centr... PL 388 101.4 30.0 112.1 92 0 0 1 387 30
04/14/17 Video View Schoop, Jonathan BAL Sanchez, Aaron TOR 5 Rogers Centr... PL 428 108.2 24.1 100.3 80 0 0 1 428 30
04/14/17 Video View Smoak, Justin TOR Miley, Wade BAL 4 Rogers Centr... PL 414 110.5 23.2 108.5 68 0 0 0 414 30
04/14/17 Video View Davis, Chris BAL Sanchez, Aaron TOR 6 Rogers Centr... JE 418 103.6 25.0 92.2 85 0 0 1 418 22
04/14/17 Video View Hardy, J.J. BAL Sanchez, Aaron TOR 5 Rogers Centr... ND 396 105.6 27.2 116.4 79 0 0 1 396 30
04/14/17 Video View Smith, Seth BAL Grilli, Jason TOR 9 Rogers Centr... ND 404 108.8 25.2 64.3 72 0 0 0 404 30
04/16/17 Video View Mancini, Trey BAL Tepera, Ryan TOR 6 Rogers Centr... ND 410 110.5 26.1 121.2 76 0 0 0 409 30
04/16/17 Video View Mancini, Trey BAL Dermody, Matt TOR 8 Rogers Centr... PL 422 103.9 25.4 88.0 88 0 0 1 421 27
04/16/17 Video View Machado, Manny BAL Dermody, Matt TOR 8 Rogers Centr... JE 339 95.3 29.6 55.9 70 0 0 0 339 18
04/16/17 Video View Gentry, Craig BAL Dermody, Matt TOR 8 Rogers Centr... ND 402 104.4 32.0 111.9 111 0 0 1 401 30
04/16/17 Video View Pillar, Kevin TOR Nuno, Vidal BAL 9 Rogers Centr... PL 423 104.2 25.3 92.0 88 0 0 0 423 27
04/18/17 Video View Smoak, Justin TOR Johnson, Brian BOS 3 Rogers Centr... JE 382 105.6 23.0 109.5 60 0 0 0 383 23
04/18/17 Video View Martin, Russell TOR Johnson, Brian BOS 5 Rogers Centr... ND 438 109.2 26.4 102.7 95 0 0 1 438 30
04/18/17 Video View Betts, Mookie BOS Smith, Joe TOR 7 Rogers Centr... ND 429 116.4 22.5 113.5 67 0 0 1 429 30
04/18/17 Video View Carrera, Ezequiel TOR Barnes, Matt BOS 9 Rogers Centr... JE 355 97.1 29.0 117.2 75 0 0 0 355 11
04/20/17 Video View Morales, Kendrys TOR Kimbrel, Craig BOS 9 Rogers Centr... PL 422 103.2 28.7 87.8 106 0 0 1 422 28
04/28/17 Video View Dickerson, Corey TB Stroman, Marcus TOR 8 Rogers Centr... PL 420 104.6 26.2 98.5 89 0 0 1 420 30
04/28/17 Video View Longoria, Evan TB Grilli, Jason TOR 8 Rogers Centr... JE 420 105.0 23.3 89.6 77 0 0 0 420 25
04/28/17 Video View Morrison, Logan TB Leone, Dominic TOR 8 Rogers Centr... PL 434 105.4 27.3 87.8 103 0 0 0 434 30
04/28/17 Video View Pillar, Kevin TOR Pruitt, Austin TB 7 Rogers Centr... JE 350 105.4 22.3 126.9 49 0 0 0 350 11
04/28/17 Video View Norris, Derek TB Leone, Dominic TOR 9 Rogers Centr... JE 374 97.4 30.6 107.3 93 0 0 1 373 19
05/08/17 Video View Goins, Ryan TOR Bauer, Trevor CLE 2 Rogers Centr... ND 413 108.3 28.8 62.4 92 0 0 1 412 30
05/09/17 Video View Gomes, Yan CLE Loup, Aaron TOR 8 Rogers Centr... JE 382 98.9 30.1 106.8 93 0 0 0 382 26
05/10/17 Video View Bautista, Jose TOR Salazar, Danny CLE 1 Rogers Centr... ND 398 117.6 20.9 128.0 52 0 0 1 397 30
05/10/17 Video View Carrera, Ezequiel TOR Otero, Dan CLE 4 Rogers Centr... ND 394 108.8 24.3 62.1 66 0 0 1 394 30
05/11/17 Video View Pearce, Steve TOR De Jong, Chase SEA 5 Rogers Centr... PL 397 106.4 25.0 111.6 71 0 0 1 397 30
05/11/17 Video View Smoak, Justin TOR Gaviglio, Sam SEA 7 Rogers Centr... JE 407 102.9 25.3 81.6 81 0 0 1 407 27
05/12/17 Video View Bautista, Jose TOR Bergman, Christian SEA 3 Rogers Centr... PL 372 100.8 31.2 123.0 87 0 0 0 372 30
05/13/17 Video View Morales, Kendrys TOR Zych, Tony SEA 6 Rogers Centr... PL 426 108.4 23.2 80.7 76 0 0 0 426 29
05/13/17 Video View Bautista, Jose TOR Vincent, Nick SEA 7 Rogers Centr... PL 438 106.7 27.1 95.6 102 0 0 0 438 30
05/14/17 Video View Smoak, Justin TOR Pazos, James SEA 6 Rogers Centr... JE 412 114.0 18.5 98.9 53 0 0 1 412 22
05/14/17 Video View Dyson, Jarrod SEA Leone, Dominic TOR 7 Rogers Centr... PL 389 104.5 25.9 66.8 72 0 0 1 388 30
05/14/17 Video View Pillar, Kevin TOR Diaz, Edwin SEA 9 Rogers Centr... PL 410 106.1 25.7 106.5 80 0 0 0 410 30
05/15/17 Video View Freeman, Freddie ATL Campos, Leonel TOR 6 Rogers Centr... JE 408 101.2 32.0 92.8 121 0 0 1 407 17
05/15/17 Video View Smoak, Justin TOR Collmenter, Josh ATL 9 Rogers Centr... PL 386 103.1 26.2 68.9 74 0 0 0 386 28
05/16/17 Video View Freeman, Freddie ATL Estrada, Marco TOR 5 Rogers Centr... PL 414 103.8 33.5 85.6 137 0 0 1 414 24
05/16/17 Video View Pillar, Kevin TOR Garcia, Jaime ATL 5 Rogers Centr... PL 423 112.0 21.1 101.3 64 0 0 0 423 30
04/12/17 Video View Villar, Jonathan MIL Stroman, Marcus TOR 6 Rogers Centr... PL 429 105.7 25.7 84.2 91 0 -1 0 429 27
04/15/17 Video View Morales, Kendrys TOR Wilson, Tyler BAL 9 Rogers Centr... ND 448 109.0 28.5 81.5 115 0 -1 1 448 30
04/29/17 Video View Smoak, Justin TOR Andriese, Matt TB 6 Rogers Centr... PL 423 103.2 28.8 92.3 107 0 -1 0 422 27
05/11/17 Video View Cruz, Nelson SEA Estrada, Marco TOR 1 Rogers Centr... PL 441 106.7 26.2 89.0 99 0 -1 0 441 30
05/16/17 Video View Swanson, Dansby ATL Barnes, Danny TOR 7 Rogers Centr... PL 425 104.6 25.4 92.3 89 0 -1 0 425 27


About HitTracker | Contact Us
© 2006-2017 HitTrackerOnline